sensor_id;sensor_type;location;lat;lon;timestamp;pressure;altitude;pressure_sealevel;temperature;humidity
40592;BME280;26301;42.832;23.918;2023-03-16T00:02:17;92238.03;;;5.57;92.27
40592;BME280;26301;42.832;23.918;2023-03-16T00:04:43;92236.59;;;5.49;93.29
40592;BME280;26301;42.832;23.918;2023-03-16T00:07:12;92246.63;;;5.50;93.77
40592;BME280;26301;42.832;23.918;2023-03-16T00:09:38;92239.28;;;5.42;93.32
40592;BME280;26301;42.832;23.918;2023-03-16T00:12:17;92231.16;;;5.34;94.46
40592;BME280;26301;42.832;23.918;2023-03-16T00:14:47;92234.16;;;5.42;94.10
40592;BME280;26301;42.832;23.918;2023-03-16T00:17:15;92221.69;;;5.34;93.06
40592;BME280;26301;42.832;23.918;2023-03-16T00:19:49;92187.34;;;4.95;92.86
40592;BME280;26301;42.832;23.918;2023-03-16T00:22:23;92221.81;;;5.27;91.25
40592;BME280;26301;42.832;23.918;2023-03-16T00:24:49;92184.13;;;4.99;92.55
40592;BME280;26301;42.832;23.918;2023-03-16T00:27:15;92233.41;;;5.18;92.79
40592;BME280;26301;42.832;23.918;2023-03-16T00:29:42;92256.78;;;5.22;94.64
40592;BME280;26301;42.832;23.918;2023-03-16T00:32:16;92248.44;;;5.15;95.39
40592;BME280;26301;42.832;23.918;2023-03-16T00:34:42;92233.16;;;5.08;95.32
40592;BME280;26301;42.832;23.918;2023-03-16T00:37:08;92256.78;;;5.22;95.19
40592;BME280;26301;42.832;23.918;2023-03-16T00:39:34;92228.72;;;5.15;94.09
40592;BME280;26301;42.832;23.918;2023-03-16T00:42:00;92252.28;;;5.41;94.51
40592;BME280;26301;42.832;23.918;2023-03-16T00:44:26;92237.63;;;5.24;95.01
40592;BME280;26301;42.832;23.918;2023-03-16T00:46:52;92235.06;;;5.13;95.29
40592;BME280;26301;42.832;23.918;2023-03-16T00:49:17;92250.63;;;5.23;95.60
40592;BME280;26301;42.832;23.918;2023-03-16T00:51:43;92223.16;;;5.07;96.53
40592;BME280;26301;42.832;23.918;2023-03-16T00:54:10;92226.94;;;5.04;97.03
40592;BME280;26301;42.832;23.918;2023-03-16T00:56:36;92242.06;;;5.17;96.97
40592;BME280;26301;42.832;23.918;2023-03-16T00:59:01;92246.31;;;5.12;97.03
40592;BME280;26301;42.832;23.918;2023-03-16T01:01:27;92228.50;;;5.05;97.64
40592;BME280;26301;42.832;23.918;2023-03-16T01:03:52;92222.03;;;5.14;96.25
40592;BME280;26301;42.832;23.918;2023-03-16T01:06:19;92230.72;;;5.25;94.61
40592;BME280;26301;42.832;23.918;2023-03-16T01:08:45;92217.94;;;5.13;94.73
40592;BME280;26301;42.832;23.918;2023-03-16T01:11:15;92242.06;;;5.17;96.23
40592;BME280;26301;42.832;23.918;2023-03-16T01:13:41;92249.66;;;5.12;97.00
40592;BME280;26301;42.832;23.918;2023-03-16T01:16:07;92218.06;;;4.95;97.49
40592;BME280;26301;42.832;23.918;2023-03-16T01:18:33;92231.06;;;4.93;98.40
40592;BME280;26301;42.832;23.918;2023-03-16T01:21:04;92228.16;;;4.78;98.99
40592;BME280;26301;42.832;23.918;2023-03-16T01:23:30;92243.97;;;4.87;99.13
40592;BME280;26301;42.832;23.918;2023-03-16T01:25:57;92233.06;;;4.79;99.19
40592;BME280;26301;42.832;23.918;2023-03-16T01:28:25;92218.28;;;4.70;99.73
40592;BME280;26301;42.832;23.918;2023-03-16T01:30:52;92224.34;;;4.57;100.00
40592;BME280;26301;42.832;23.918;2023-03-16T01:33:21;92240.28;;;4.71;100.00
40592;BME280;26301;42.832;23.918;2023-03-16T01:35:54;92248.59;;;4.66;100.00
40592;BME280;26301;42.832;23.918;2023-03-16T01:38:20;92243.50;;;4.66;100.00
40592;BME280;26301;42.832;23.918;2023-03-16T01:40:47;92230.34;;;4.51;100.00
40592;BME280;26301;42.832;23.918;2023-03-16T01:43:16;92239.69;;;4.45;100.00
40592;BME280;26301;42.832;23.918;2023-03-16T01:48:32;92255.84;;;4.57;99.75
40592;BME280;26301;42.832;23.918;2023-03-16T01:51:23;92249.28;;;4.62;97.84
40592;BME280;26301;42.832;23.918;2023-03-16T01:53:54;92256.97;;;4.62;96.34
40592;BME280;26301;42.832;23.918;2023-03-16T01:56:25;92254.16;;;4.51;96.67
40592;BME280;26301;42.832;23.918;2023-03-16T01:58:52;92249.69;;;4.47;96.51
40592;BME280;26301;42.832;23.918;2023-03-16T02:01:24;92266.06;;;4.57;94.61
40592;BME280;26301;42.832;23.918;2023-03-16T02:03:55;92270.81;;;4.54;94.43
40592;BME280;26301;42.832;23.918;2023-03-16T02:06:22;92259.28;;;4.51;94.34
40592;BME280;26301;42.832;23.918;2023-03-16T02:08:48;92258.16;;;4.47;93.33
40592;BME280;26301;42.832;23.918;2023-03-16T02:11:15;92244.41;;;4.30;94.78
40592;BME280;26301;42.832;23.918;2023-03-16T02:13:44;92265.44;;;4.32;96.24
40592;BME280;26301;42.832;23.918;2023-03-16T02:16:10;92256.97;;;4.20;96.20
40592;BME280;26301;42.832;23.918;2023-03-16T02:18:37;92270.91;;;4.35;96.67
40592;BME280;26301;42.832;23.918;2023-03-16T02:21:13;92267.47;;;4.42;96.55
40592;BME280;26301;42.832;23.918;2023-03-16T02:23:42;92264.13;;;4.41;96.60
40592;BME280;26301;42.832;23.918;2023-03-16T02:28:53;92287.09;;;4.59;97.35
40592;BME280;26301;42.832;23.918;2023-03-16T02:31:25;92281.53;;;4.63;97.92
40592;BME280;26301;42.832;23.918;2023-03-16T02:33:51;92263.16;;;4.54;98.28
40592;BME280;26301;42.832;23.918;2023-03-16T02:36:19;92289.91;;;4.70;97.61
40592;BME280;26301;42.832;23.918;2023-03-16T02:38:44;92287.34;;;4.70;96.50
40592;BME280;26301;42.832;23.918;2023-03-16T02:41:13;92290.34;;;4.67;96.14
40592;BME280;26301;42.832;23.918;2023-03-16T02:43:43;92274.63;;;4.63;96.83
40592;BME280;26301;42.832;23.918;2023-03-16T02:46:10;92300.38;;;4.80;96.41
40592;BME280;26301;42.832;23.918;2023-03-16T02:51:19;92280.19;;;4.60;97.88
40592;BME280;26301;42.832;23.918;2023-03-16T02:53:45;92283.66;;;4.66;97.74
40592;BME280;26301;42.832;23.918;2023-03-16T02:56:10;92304.72;;;4.79;96.63
40592;BME280;26301;42.832;23.918;2023-03-16T02:58:36;92286.97;;;4.66;95.66
40592;BME280;26301;42.832;23.918;2023-03-16T03:01:02;92308.00;;;4.68;94.79
40592;BME280;26301;42.832;23.918;2023-03-16T03:03:28;92316.69;;;4.67;93.86
40592;BME280;26301;42.832;23.918;2023-03-16T03:05:54;92294.72;;;4.48;94.44
40592;BME280;26301;42.832;23.918;2023-03-16T03:08:19;92317.13;;;4.64;94.31
40592;BME280;26301;42.832;23.918;2023-03-16T03:10:47;92321.78;;;4.55;95.19
40592;BME280;26301;42.832;23.918;2023-03-16T03:13:13;92324.09;;;4.45;95.40
40592;BME280;26301;42.832;23.918;2023-03-16T03:15:38;92321.81;;;4.37;95.40
40592;BME280;26301;42.832;23.918;2023-03-16T03:18:05;92321.47;;;4.33;95.54
40592;BME280;26301;42.832;23.918;2023-03-16T03:20:30;92327.28;;;4.41;95.34
40592;BME280;26301;42.832;23.918;2023-03-16T03:22:56;92337.41;;;4.47;94.80
40592;BME280;26301;42.832;23.918;2023-03-16T03:25:22;92336.44;;;4.48;93.59
40592;BME280;26301;42.832;23.918;2023-03-16T03:27:48;92317.16;;;4.34;93.41
40592;BME280;26301;42.832;23.918;2023-03-16T03:30:19;92323.22;;;4.21;94.17
40592;BME280;26301;42.832;23.918;2023-03-16T03:32:45;92330.94;;;4.15;94.16
40592;BME280;26301;42.832;23.918;2023-03-16T03:35:12;92351.09;;;4.23;94.01
40592;BME280;26301;42.832;23.918;2023-03-16T03:37:39;92350.03;;;4.12;93.45
40592;BME280;26301;42.832;23.918;2023-03-16T03:40:06;92355.31;;;3.99;93.67
40592;BME280;26301;42.832;23.918;2023-03-16T03:42:37;92343.66;;;3.84;93.65
40592;BME280;26301;42.832;23.918;2023-03-16T03:45:02;92353.13;;;3.84;93.87
40592;BME280;26301;42.832;23.918;2023-03-16T03:47:28;92364.88;;;3.85;94.84
40592;BME280;26301;42.832;23.918;2023-03-16T03:49:54;92368.00;;;3.87;95.87
40592;BME280;26301;42.832;23.918;2023-03-16T03:52:19;92374.41;;;3.78;96.56
40592;BME280;26301;42.832;23.918;2023-03-16T03:54:45;92373.28;;;3.74;97.52
40592;BME280;26301;42.832;23.918;2023-03-16T03:57:10;92360.53;;;3.49;97.67
40592;BME280;26301;42.832;23.918;2023-03-16T03:59:36;92370.53;;;3.50;97.13
40592;BME280;26301;42.832;23.918;2023-03-16T04:02:07;92381.88;;;3.54;96.82
40592;BME280;26301;42.832;23.918;2023-03-16T04:04:33;92380.41;;;3.47;96.81
40592;BME280;26301;42.832;23.918;2023-03-16T04:06:58;92371.88;;;3.34;97.39
40592;BME280;26301;42.832;23.918;2023-03-16T04:09:24;92362.31;;;3.23;98.35
40592;BME280;26301;42.832;23.918;2023-03-16T04:11:50;92368.84;;;3.19;98.57
40592;BME280;26301;42.832;23.918;2023-03-16T04:14:16;92396.38;;;3.35;98.52
40592;BME280;26301;42.832;23.918;2023-03-16T04:16:41;92374.50;;;3.21;98.15
40592;BME280;26301;42.832;23.918;2023-03-16T04:19:09;92399.19;;;3.27;98.87
40592;BME280;26301;42.832;23.918;2023-03-16T04:21:36;92376.13;;;3.15;98.10
40592;BME280;26301;42.832;23.918;2023-03-16T04:24:01;92412.72;;;3.34;96.05
40592;BME280;26301;42.832;23.918;2023-03-16T04:26:30;92402.81;;;3.13;96.69
40592;BME280;26301;42.832;23.918;2023-03-16T04:28:56;92424.16;;;3.25;96.54
40592;BME280;26301;42.832;23.918;2023-03-16T04:31:22;92425.56;;;3.21;95.11
40592;BME280;26301;42.832;23.918;2023-03-16T04:33:47;92432.66;;;3.12;96.24
40592;BME280;26301;42.832;23.918;2023-03-16T04:36:13;92422.69;;;3.11;94.58
40592;BME280;26301;42.832;23.918;2023-03-16T04:38:38;92411.31;;;2.75;95.52
40592;BME280;26301;42.832;23.918;2023-03-16T04:41:05;92410.22;;;2.58;96.88
40592;BME280;26301;42.832;23.918;2023-03-16T04:43:32;92427.28;;;2.64;96.16
40592;BME280;26301;42.832;23.918;2023-03-16T04:45:59;92421.59;;;2.62;96.44
40592;BME280;26301;42.832;23.918;2023-03-16T04:48:26;92449.38;;;2.77;96.89
40592;BME280;26301;42.832;23.918;2023-03-16T04:50:52;92440.56;;;2.72;96.73
40592;BME280;26301;42.832;23.918;2023-03-16T04:53:17;92452.31;;;2.73;97.09
40592;BME280;26301;42.832;23.918;2023-03-16T04:55:45;92455.53;;;2.56;97.58
40592;BME280;26301;42.832;23.918;2023-03-16T04:58:11;92443.84;;;2.35;98.08
40592;BME280;26301;42.832;23.918;2023-03-16T05:00:38;92452.06;;;2.43;98.52
40592;BME280;26301;42.832;23.918;2023-03-16T05:03:05;92455.19;;;2.45;98.56
40592;BME280;26301;42.832;23.918;2023-03-16T05:05:30;92451.53;;;2.28;99.41
40592;BME280;26301;42.832;23.918;2023-03-16T05:07:56;92475.00;;;2.43;99.53
40592;BME280;26301;42.832;23.918;2023-03-16T05:10:21;92469.34;;;2.41;99.76
40592;BME280;26301;42.832;23.918;2023-03-16T05:12:47;92477.16;;;2.46;99.67
40592;BME280;26301;42.832;23.918;2023-03-16T05:15:12;92476.03;;;2.36;99.63
40592;BME280;26301;42.832;23.918;2023-03-16T05:17:39;92477.00;;;2.28;99.44
40592;BME280;26301;42.832;23.918;2023-03-16T05:20:07;92482.13;;;2.21;99.08
40592;BME280;26301;42.832;23.918;2023-03-16T05:22:36;92490.75;;;2.27;97.80
40592;BME280;26301;42.832;23.918;2023-03-16T05:25:01;92486.84;;;2.18;97.11
40592;BME280;26301;42.832;23.918;2023-03-16T05:27:28;92481.97;;;2.10;98.59
40592;BME280;26301;42.832;23.918;2023-03-16T05:29:54;92481.97;;;2.10;98.13
40592;BME280;26301;42.832;23.918;2023-03-16T05:32:20;92512.94;;;2.20;97.71
40592;BME280;26301;42.832;23.918;2023-03-16T05:34:45;92509.75;;;2.24;97.36
40592;BME280;26301;42.832;23.918;2023-03-16T05:37:11;92497.03;;;2.18;97.08
40592;BME280;26301;42.832;23.918;2023-03-16T05:39:37;92486.69;;;1.86;98.29
40592;BME280;26301;42.832;23.918;2023-03-16T05:42:02;92477.47;;;1.92;98.14
40592;BME280;26301;42.832;23.918;2023-03-16T05:44:30;92504.69;;;2.11;98.09
40592;BME280;26301;42.832;23.918;2023-03-16T05:46:55;92511.56;;;2.11;97.19
40592;BME280;26301;42.832;23.918;2023-03-16T05:49:21;92445.00;;;1.67;97.11
40592;BME280;26301;42.832;23.918;2023-03-16T05:51:46;92492.75;;;1.98;95.77
40592;BME280;26301;42.832;23.918;2023-03-16T05:54:14;92515.47;;;2.06;97.10
40592;BME280;26301;42.832;23.918;2023-03-16T05:56:39;92505.50;;;1.98;98.30
40592;BME280;26301;42.832;23.918;2023-03-16T05:59:05;92523.50;;;2.17;96.48
40592;BME280;26301;42.832;23.918;2023-03-16T06:01:30;92499.03;;;1.96;97.29
40592;BME280;26301;42.832;23.918;2023-03-16T06:03:58;92519.41;;;2.09;97.70
40592;BME280;26301;42.832;23.918;2023-03-16T06:06:23;92507.25;;;2.04;98.40
40592;BME280;26301;42.832;23.918;2023-03-16T06:08:48;92503.91;;;2.04;99.09
40592;BME280;26301;42.832;23.918;2023-03-16T06:11:14;92533.53;;;2.05;98.70
40592;BME280;26301;42.832;23.918;2023-03-16T06:13:40;92515.28;;;2.15;97.46
40592;BME280;26301;42.832;23.918;2023-03-16T06:16:06;92536.81;;;2.32;97.63
40592;BME280;26301;42.832;23.918;2023-03-16T06:18:33;92519.97;;;2.18;98.13
40592;BME280;26301;42.832;23.918;2023-03-16T06:20:59;92519.97;;;2.18;98.13
40592;BME280;26301;42.832;23.918;2023-03-16T06:23:24;92533.88;;;2.22;97.47
40592;BME280;26301;42.832;23.918;2023-03-16T06:25:50;92528.19;;;2.13;97.63
40592;BME280;26301;42.832;23.918;2023-03-16T06:28:19;92551.94;;;2.20;98.92
40592;BME280;26301;42.832;23.918;2023-03-16T06:30:45;92529.63;;;1.96;100.00
40592;BME280;26301;42.832;23.918;2023-03-16T06:33:11;92557.59;;;2.22;99.94
40592;BME280;26301;42.832;23.918;2023-03-16T06:35:36;92558.19;;;2.24;98.87
40592;BME280;26301;42.832;23.918;2023-03-16T06:38:02;92560.16;;;2.09;99.59
40592;BME280;26301;42.832;23.918;2023-03-16T06:40:27;92546.84;;;1.87;100.00
40592;BME280;26301;42.832;23.918;2023-03-16T06:42:53;92569.19;;;2.05;99.97
40592;BME280;26301;42.832;23.918;2023-03-16T06:45:18;92575.06;;;2.12;100.00
40592;BME280;26301;42.832;23.918;2023-03-16T06:47:46;92567.41;;;2.05;100.00
40592;BME280;26301;42.832;23.918;2023-03-16T06:50:13;92555.06;;;2.02;100.00
40592;BME280;26301;42.832;23.918;2023-03-16T06:52:38;92593.47;;;2.27;100.00
40592;BME280;26301;42.832;23.918;2023-03-16T06:55:04;92571.91;;;1.97;99.67
40592;BME280;26301;42.832;23.918;2023-03-16T06:57:30;92576.41;;;1.95;99.44
40592;BME280;26301;42.832;23.918;2023-03-16T06:59:55;92572.50;;;1.92;100.00
40592;BME280;26301;42.832;23.918;2023-03-16T07:02:21;92580.94;;;1.93;100.00
40592;BME280;26301;42.832;23.918;2023-03-16T07:04:48;92585.44;;;2.04;99.48
40592;BME280;26301;42.832;23.918;2023-03-16T07:07:14;92591.13;;;1.99;100.00
40592;BME280;26301;42.832;23.918;2023-03-16T07:09:39;92605.41;;;2.07;100.00
40592;BME280;26301;42.832;23.918;2023-03-16T07:12:06;92609.91;;;1.98;100.00
40592;BME280;26301;42.832;23.918;2023-03-16T07:14:31;92608.75;;;2.01;100.00
40592;BME280;26301;42.832;23.918;2023-03-16T07:16:57;92599.34;;;1.88;100.00
40592;BME280;26301;42.832;23.918;2023-03-16T07:19:22;92602.88;;;1.94;100.00
40592;BME280;26301;42.832;23.918;2023-03-16T07:21:48;92622.47;;;2.13;100.00
40592;BME280;26301;42.832;23.918;2023-03-16T07:24:14;92612.06;;;1.95;100.00
40592;BME280;26301;42.832;23.918;2023-03-16T07:26:39;92622.84;;;2.10;100.00
40592;BME280;26301;42.832;23.918;2023-03-16T07:29:06;92604.44;;;1.81;99.94
40592;BME280;26301;42.832;23.918;2023-03-16T07:31:33;92614.84;;;1.87;100.00
40592;BME280;26301;42.832;23.918;2023-03-16T07:34:00;92625.97;;;1.86;100.00
40592;BME280;26301;42.832;23.918;2023-03-16T07:36:26;92638.94;;;1.91;100.00
40592;BME280;26301;42.832;23.918;2023-03-16T07:38:52;92644.81;;;1.91;99.71
40592;BME280;26301;42.832;23.918;2023-03-16T07:41:17;92644.78;;;1.78;100.00
40592;BME280;26301;42.832;23.918;2023-03-16T07:43:43;92656.16;;;1.95;98.54
40592;BME280;26301;42.832;23.918;2023-03-16T07:46:10;92641.09;;;1.94;97.04
40592;BME280;26301;42.832;23.918;2023-03-16T07:48:39;92627.38;;;1.88;97.47
40592;BME280;26301;42.832;23.918;2023-03-16T07:51:05;92644.03;;;1.97;96.77
40592;BME280;26301;42.832;23.918;2023-03-16T07:53:30;92655.41;;;2.08;96.16
40592;BME280;26301;42.832;23.918;2023-03-16T07:55:56;92657.56;;;2.11;95.07
40592;BME280;26301;42.832;23.918;2023-03-16T07:58:22;92642.84;;;1.93;95.79
40592;BME280;26301;42.832;23.918;2023-03-16T08:00:47;92673.25;;;2.15;96.90
40592;BME280;26301;42.832;23.918;2023-03-16T08:03:13;92676.19;;;2.12;96.60
40592;BME280;26301;42.832;23.918;2023-03-16T08:05:38;92671.47;;;2.09;97.53
40592;BME280;26301;42.832;23.918;2023-03-16T08:08:04;92676.00;;;2.20;97.73
40592;BME280;26301;42.832;23.918;2023-03-16T08:10:30;92671.88;;;2.19;96.40
40592;BME280;26301;42.832;23.918;2023-03-16T08:12:55;92676.38;;;2.10;97.17
40592;BME280;26301;42.832;23.918;2023-03-16T08:15:21;92682.06;;;2.12;97.50
40592;BME280;26301;42.832;23.918;2023-03-16T08:17:46;92663.63;;;1.97;98.03
40592;BME280;26301;42.832;23.918;2023-03-16T08:20:12;92684.59;;;2.12;98.04
40592;BME280;26301;42.832;23.918;2023-03-16T08:22:41;92666.78;;;2.05;97.73
40592;BME280;26301;42.832;23.918;2023-03-16T08:25:07;92674.03;;;2.09;97.24
40592;BME280;26301;42.832;23.918;2023-03-16T08:27:36;92672.66;;;2.13;96.97
40592;BME280;26301;42.832;23.918;2023-03-16T08:30:04;92680.47;;;2.04;97.57
40592;BME280;26301;42.832;23.918;2023-03-16T08:32:31;92697.94;;;2.14;97.81
40592;BME280;26301;42.832;23.918;2023-03-16T08:34:57;92704.59;;;2.15;97.32
40592;BME280;26301;42.832;23.918;2023-03-16T08:37:25;92706.59;;;2.20;96.79
40592;BME280;26301;42.832;23.918;2023-03-16T08:39:51;92689.69;;;1.99;96.75
40592;BME280;26301;42.832;23.918;2023-03-16T08:42:17;92711.63;;;2.06;97.67
40592;BME280;26301;42.832;23.918;2023-03-16T08:44:44;92691.25;;;2.00;97.20
40592;BME280;26301;42.832;23.918;2023-03-16T08:47:09;92698.91;;;2.00;97.15
40592;BME280;26301;42.832;23.918;2023-03-16T08:49:36;92724.16;;;2.01;97.52
40592;BME280;26301;42.832;23.918;2023-03-16T08:52:02;92696.28;;;1.80;98.20
40592;BME280;26301;42.832;23.918;2023-03-16T08:54:29;92716.91;;;1.98;99.07
40592;BME280;26301;42.832;23.918;2023-03-16T08:56:56;92721.59;;;1.95;98.72
40592;BME280;26301;42.832;23.918;2023-03-16T08:59:22;92718.28;;;2.01;98.61
40592;BME280;26301;42.832;23.918;2023-03-16T09:01:47;92697.13;;;1.87;98.10
40592;BME280;26301;42.832;23.918;2023-03-16T09:04:13;92722.59;;;2.00;98.07
40592;BME280;26301;42.832;23.918;2023-03-16T09:06:39;92714.34;;;1.98;98.08
40592;BME280;26301;42.832;23.918;2023-03-16T09:09:04;92717.50;;;1.94;98.17
40592;BME280;26301;42.832;23.918;2023-03-16T09:11:30;92706.91;;;1.90;98.99
40592;BME280;26301;42.832;23.918;2023-03-16T09:13:58;92714.78;;;2.02;98.17
40592;BME280;26301;42.832;23.918;2023-03-16T09:16:24;92727.91;;;2.05;98.09
40592;BME280;26301;42.832;23.918;2023-03-16T09:18:51;92716.66;;;1.80;99.03
40592;BME280;26301;42.832;23.918;2023-03-16T09:21:16;92727.47;;;1.95;99.39
40592;BME280;26301;42.832;23.918;2023-03-16T09:23:42;92736.50;;;1.98;98.34
40592;BME280;26301;42.832;23.918;2023-03-16T09:26:08;92735.50;;;1.86;99.16
40592;BME280;26301;42.832;23.918;2023-03-16T09:28:35;92712.75;;;1.77;99.85
40592;BME280;26301;42.832;23.918;2023-03-16T09:31:03;92720.19;;;1.79;99.87
40592;BME280;26301;42.832;23.918;2023-03-16T09:33:29;92722.59;;;1.87;99.00
40592;BME280;26301;42.832;23.918;2023-03-16T09:35:56;92734.53;;;1.87;99.96
40592;BME280;26301;42.832;23.918;2023-03-16T09:38:23;92751.94;;;1.83;100.00
40592;BME280;26301;42.832;23.918;2023-03-16T09:46:49;92747.59;;;1.77;100.00
40592;BME280;26301;42.832;23.918;2023-03-16T09:49:18;92756.84;;;1.85;100.00
40592;BME280;26301;42.832;23.918;2023-03-16T09:54:39;92751.75;;;1.78;100.00
40592;BME280;26301;42.832;23.918;2023-03-16T09:57:30;92748.00;;;1.74;100.00
40592;BME280;26301;42.832;23.918;2023-03-16T10:00:01;92733.47;;;1.68;100.00
40592;BME280;26301;42.832;23.918;2023-03-16T10:05:19;92730.38;;;1.79;100.00
40592;BME280;26301;42.832;23.918;2023-03-16T10:08:10;92757.84;;;1.90;100.00
40592;BME280;26301;42.832;23.918;2023-03-16T10:16:17;92769.06;;;2.02;100.00
40592;BME280;26301;42.832;23.918;2023-03-16T10:18:47;92732.56;;;1.89;99.21
40592;BME280;26301;42.832;23.918;2023-03-16T10:21:15;92762.19;;;1.96;100.00
40592;BME280;26301;42.832;23.918;2023-03-16T10:23:43;92764.53;;;1.98;100.00
40592;BME280;26301;42.832;23.918;2023-03-16T10:26:13;92746.50;;;1.99;99.61
40592;BME280;26301;42.832;23.918;2023-03-16T10:28:41;92739.81;;;1.92;99.85
40592;BME280;26301;42.832;23.918;2023-03-16T10:31:08;92761.03;;;2.12;99.57
40592;BME280;26301;42.832;23.918;2023-03-16T10:33:35;92768.69;;;2.12;98.36
40592;BME280;26301;42.832;23.918;2023-03-16T10:38:53;92763.97;;;2.02;98.80
40592;BME280;26301;42.832;23.918;2023-03-16T10:41:27;92761.03;;;1.99;98.96
40592;BME280;26301;42.832;23.918;2023-03-16T10:46:26;92740.78;;;1.84;100.00
40592;BME280;26301;42.832;23.918;2023-03-16T10:48:56;92768.66;;;1.99;100.00
40592;BME280;26301;42.832;23.918;2023-03-16T10:51:32;92767.28;;;1.96;100.00
40592;BME280;26301;42.832;23.918;2023-03-16T10:54:07;92760.41;;;1.90;100.00
40592;BME280;26301;42.832;23.918;2023-03-16T10:56:38;92748.25;;;1.92;100.00
40592;BME280;26301;42.832;23.918;2023-03-16T10:59:14;92764.56;;;2.11;100.00
40592;BME280;26301;42.832;23.918;2023-03-16T11:01:44;92770.44;;;2.12;100.00
40592;BME280;26301;42.832;23.918;2023-03-16T11:04:13;92763.97;;;2.16;100.00
40592;BME280;26301;42.832;23.918;2023-03-16T11:06:47;92766.91;;;2.13;100.00
40592;BME280;26301;42.832;23.918;2023-03-16T11:09:19;92762.44;;;2.15;100.00
40592;BME280;26301;42.832;23.918;2023-03-16T11:11:46;92745.56;;;2.14;100.00
40592;BME280;26301;42.832;23.918;2023-03-16T11:14:13;92758.53;;;2.32;98.68
40592;BME280;26301;42.832;23.918;2023-03-16T11:16:46;92765.81;;;2.35;99.54
40592;BME280;26301;42.832;23.918;2023-03-16T11:19:47;92773.03;;;2.32;99.66
40592;BME280;26301;42.832;23.918;2023-03-16T11:22:17;92749.91;;;2.20;99.58
40592;BME280;26301;42.832;23.918;2023-03-16T11:25:25;92772.47;;;2.36;100.00
40592;BME280;26301;42.832;23.918;2023-03-16T11:30:37;92743.44;;;2.31;99.36
40592;BME280;26301;42.832;23.918;2023-03-16T11:33:08;92746.19;;;2.42;98.23
40592;BME280;26301;42.832;23.918;2023-03-16T11:38:36;92764.44;;;2.46;98.61
40592;BME280;26301;42.832;23.918;2023-03-16T11:41:09;92765.59;;;2.43;99.27
40592;BME280;26301;42.832;23.918;2023-03-16T11:46:14;92776.94;;;2.34;100.00
40592;BME280;26301;42.832;23.918;2023-03-16T11:51:34;92753.03;;;2.22;100.00
40592;BME280;26301;42.832;23.918;2023-03-16T12:02:43;92770.69;;;2.37;100.00
40592;BME280;26301;42.832;23.918;2023-03-16T12:14:12;92773.09;;;2.65;98.97
40592;BME280;26301;42.832;23.918;2023-03-16T12:19:20;92753.84;;;2.29;99.30
40592;BME280;26301;42.832;23.918;2023-03-16T12:21:58;92754.41;;;2.31;99.76
40592;BME280;26301;42.832;23.918;2023-03-16T12:24:38;92771.50;;;2.50;96.71
40592;BME280;26301;42.832;23.918;2023-03-16T12:27:11;92785.22;;;2.43;98.09
40592;BME280;26301;42.832;23.918;2023-03-16T12:38:04;92782.81;;;2.28;100.00
40592;BME280;26301;42.832;23.918;2023-03-16T12:43:30;92803.03;;;2.36;100.00
40592;BME280;26301;42.832;23.918;2023-03-16T12:48:37;92785.00;;;2.31;100.00
40592;BME280;26301;42.832;23.918;2023-03-16T12:51:04;92800.13;;;2.46;100.00
40592;BME280;26301;42.832;23.918;2023-03-16T12:56:28;92806.22;;;2.51;98.17
40592;BME280;26301;42.832;23.918;2023-03-16T12:58:56;92808.97;;;2.57;98.71
40592;BME280;26301;42.832;23.918;2023-03-16T13:01:36;92807.19;;;2.64;98.38
40592;BME280;26301;42.832;23.918;2023-03-16T13:04:09;92789.34;;;2.50;97.29
40592;BME280;26301;42.832;23.918;2023-03-16T13:06:36;92801.31;;;2.50;97.22
40592;BME280;26301;42.832;23.918;2023-03-16T13:09:04;92818.19;;;2.64;96.82
40592;BME280;26301;42.832;23.918;2023-03-16T13:11:45;92798.00;;;2.56;95.71
40592;BME280;26301;42.832;23.918;2023-03-16T13:17:04;92820.50;;;2.52;96.97
40592;BME280;26301;42.832;23.918;2023-03-16T13:19:31;92829.38;;;2.57;97.79
40592;BME280;26301;42.832;23.918;2023-03-16T13:22:19;92834.88;;;2.67;98.17
40592;BME280;26301;42.832;23.918;2023-03-16T13:27:21;92842.72;;;2.79;94.73
40592;BME280;26301;42.832;23.918;2023-03-16T13:30:01;92843.13;;;2.82;94.29
40592;BME280;26301;42.832;23.918;2023-03-16T13:32:39;92838.63;;;2.78;94.91
40592;BME280;26301;42.832;23.918;2023-03-16T13:35:07;92846.28;;;2.84;95.11
40592;BME280;26301;42.832;23.918;2023-03-16T13:37:39;92843.34;;;2.81;95.66
40592;BME280;26301;42.832;23.918;2023-03-16T13:40:21;92853.53;;;2.87;95.92
40592;BME280;26301;42.832;23.918;2023-03-16T13:42:48;92845.47;;;2.70;96.03
40592;BME280;26301;42.832;23.918;2023-03-16T13:45:20;92852.16;;;2.78;95.64
40592;BME280;26301;42.832;23.918;2023-03-16T13:47:48;92837.22;;;2.68;95.84
40592;BME280;26301;42.832;23.918;2023-03-16T13:50:15;92835.25;;;2.64;96.40
40592;BME280;26301;42.832;23.918;2023-03-16T13:52:42;92835.25;;;2.64;96.24
40592;BME280;26301;42.832;23.918;2023-03-16T13:55:17;92856.84;;;2.68;96.58
40592;BME280;26301;42.832;23.918;2023-03-16T13:57:47;92861.16;;;2.67;95.12
40592;BME280;26301;42.832;23.918;2023-03-16T14:00:22;92859.34;;;2.55;95.90
40592;BME280;26301;42.832;23.918;2023-03-16T14:02:56;92845.38;;;2.31;96.71
40592;BME280;26301;42.832;23.918;2023-03-16T14:05:29;92854.63;;;2.38;97.42
40592;BME280;26301;42.832;23.918;2023-03-16T14:07:55;92864.22;;;2.43;97.35
40592;BME280;26301;42.832;23.918;2023-03-16T14:10:30;92878.59;;;2.57;97.45
40592;BME280;26301;42.832;23.918;2023-03-16T14:13:07;92869.72;;;2.46;97.51
40592;BME280;26301;42.832;23.918;2023-03-16T14:15:35;92856.59;;;2.43;96.40
40592;BME280;26301;42.832;23.918;2023-03-16T14:18:15;92854.63;;;2.38;96.75
40592;BME280;26301;42.832;23.918;2023-03-16T14:20:46;92849.53;;;2.45;95.71
40592;BME280;26301;42.832;23.918;2023-03-16T14:23:21;92884.31;;;2.66;94.92
40592;BME280;26301;42.832;23.918;2023-03-16T14:25:49;92855.97;;;2.34;95.80
40592;BME280;26301;42.832;23.918;2023-03-16T14:28:26;92884.84;;;2.55;95.49